Terminal Aerodrome Forecast
Issued by NWS

Home | Current Version | Previous Version | Text Only | Print | Product List | Glossary On
Versions: 1 2 3 4 5 6 7 8 9 10 11 12 13
000
FTUS46 KMTR 310500
TAFSNS
TAF
KSNS 310538Z 3106/0106 31004KT P6SM OVC012
     FM310700 13008KT P6SM BKN012 OVC030
     FM311900 26004KT P6SM -RA OVC020
     FM010300 27005KT P6SM RA BKN015 OVC050=

USA.gov is the U.S. government's official web portal to all federal, state and local government web resources and services.